Time;durP1;ratioP1;P1;durP2;ratioP2;P2;SDS_P1;SDS_P2;PMS_P1;PMS_P2;Temp;Humidity;BMP_temperature;BMP_pressure;BME280_temperature;BME280_humidity;BME280_pressure;Samples;Min_cycle;Max_cycle;Signal;HPM_P1;HPM_P2
2022/04/12 04:42:12;;;;;;;;;;;;;;;7.36;86.29;98700.84;5843242;24;19965;-68
2022/04/12 04:44:39;;;;;;;;;;;;;;;7.46;84.75;98699.47;4825090;29;19974;-69
2022/04/12 04:47:07;;;;;;;;;;;;;;;7.55;83.80;98702.81;4828492;29;19967;-70
2022/04/12 04:49:34;;;;;;;;;;;;;;;7.63;82.49;98702.56;4827950;29;19966;-70
2022/04/12 04:52:01;;;;;;;;;;;;;;;7.75;82.12;98705.19;4817327;29;19959;-69
2022/04/12 04:54:28;;;;;;;;;;;;;;;7.88;80.38;98714.16;4810787;29;20252;-69
2022/04/12 04:56:56;;;;;;;;;;;;;;;7.90;80.92;98715.41;4810242;29;19959;-69
2022/04/12 04:59:23;;;;;;;;;;;;;;;8.00;79.70;98715.97;4810618;29;19948;-69
2022/04/12 05:01:53;;;;;;;;;;;;;;;8.06;80.37;98711.72;4810151;29;20351;-70
2022/04/12 05:04:21;;;;;;;;;;;;;;;8.17;78.29;98710.72;4810222;29;19952;-69
2022/04/12 05:06:48;;;;;;;;;;;;;;;8.30;77.23;98717.75;4810359;29;20346;-69
2022/04/12 05:09:15;;;;;;;;;;;;;;;8.53;75.86;98709.38;4810103;29;19957;-70
2022/04/12 05:11:42;;;;;;;;;;;;;;;8.87;74.33;98713.06;4810032;29;19974;-70
2022/04/12 05:14:10;;;;;;;;;;;;;;;9.31;71.08;98711.28;4809972;29;19965;-69
2022/04/12 05:16:37;;;;;;;;;;;;;;;9.57;71.78;98711.19;4810202;29;19971;-69
2022/04/12 05:19:04;;;;;;;;;;;;;;;9.89;68.72;98717.13;4809888;29;19964;-69
2022/04/12 05:21:31;;;;;;;;;;;;;;;10.44;67.21;98715.28;4809838;29;19959;-69
2022/04/12 05:23:59;;;;;;;;;;;;;;;10.89;65.61;98720.41;4809832;29;20339;-69
2022/04/12 05:26:26;;;;;;;;;;;;;;;11.43;63.31;98725.09;4809812;29;19960;-69
2022/04/12 05:28:53;;;;;;;;;;;;;;;12.16;57.43;98726.56;4809980;29;20353;-69
2022/04/12 05:31:20;;;;;;;;;;;;;;;12.77;53.05;98730.19;4809619;29;19979;-69
2022/04/12 05:33:48;;;;;;;;;;;;;;;13.65;48.66;98727.19;4809633;29;19996;-69
2022/04/12 05:36:15;;;;;;;;;;;;;;;14.31;48.65;98733.69;4809558;29;19971;-69
2022/04/12 05:38:42;;;;;;;;;;;;;;;14.72;46.84;98739.44;4809769;29;20013;-70
2022/04/12 05:41:09;;;;;;;;;;;;;;;15.23;45.08;98741.38;4809827;29;19955;-69
2022/04/12 05:43:37;;;;;;;;;;;;;;;15.71;43.53;98744.88;4809225;29;19984;-70
2022/04/12 05:46:04;;;;;;;;;;;;;;;16.17;41.73;98744.25;4809636;29;19958;-70
2022/04/12 05:48:31;;;;;;;;;;;;;;;16.10;40.98;98752.81;4809436;29;19959;-70
2022/04/12 05:50:59;;;;;;;;;;;;;;;16.93;39.00;98737.84;4809577;29;20366;-70
2022/04/12 05:53:27;;;;;;;;;;;;;;;17.18;36.06;98749.53;4808848;29;19965;-70
2022/04/12 05:55:55;;;;;;;;;;;;;;;18.00;36.27;98752.38;4809214;29;20270;-69
2022/04/12 05:58:22;;;;;;;;;;;;;;;18.42;34.58;98749.84;4809515;29;19968;-69
2022/04/12 06:00:49;;;;;;;;;;;;;;;18.71;32.81;98762.94;4809482;29;20256;-69
2022/04/12 06:03:16;;;;;;;;;;;;;;;19.22;33.22;98757.63;4809145;29;19959;-69
2022/04/12 06:05:44;;;;;;;;;;;;;;;19.38;32.27;98761.25;4809157;29;19968;-69
2022/04/12 06:08:11;;;;;;;;;;;;;;;19.43;31.81;98765.59;4808982;29;19973;-69
2022/04/12 06:10:38;;;;;;;;;;;;;;;20.25;30.71;98773.41;4808815;29;19980;-70
2022/04/12 06:13:14;;;;;;;;;;;;;;;20.89;30.76;98780.72;5134983;27;19955;-68
2022/04/12 06:15:42;;;;;;;;;;;;;;;21.31;29.14;98776.50;5135344;27;20327;-68
2022/04/12 06:18:10;;;;;;;;;;;;;;;21.26;29.85;98771.41;5134692;27;19955;-68
2022/04/12 06:20:37;;;;;;;;;;;;;;;21.37;29.91;98780.34;5134932;27;20612;-68
2022/04/12 06:23:06;;;;;;;;;;;;;;;21.62;29.83;98773.78;5134617;28;19950;-68
2022/04/12 06:25:33;;;;;;;;;;;;;;;21.89;28.98;98782.59;5133610;28;20358;-68
2022/04/12 06:28:00;;;;;;;;;;;;;;;21.42;28.94;98779.00;5134547;27;19949;-68
2022/04/12 06:30:30;;;;;;;;;;;;;;;20.79;30.28;98793.25;5134526;28;20257;-68
2022/04/12 06:32:57;;;;;;;;;;;;;;;20.36;30.79;98784.44;5134705;27;19972;-68
2022/04/12 06:35:25;;;;;;;;;;;;;;;20.05;31.14;98782.06;5134658;27;20247;-68
2022/04/12 06:37:53;;;;;;;;;;;;;;;19.43;31.38;98782.59;5134614;27;19984;-68
2022/04/12 06:40:21;;;;;;;;;;;;;;;19.05;34.23;98782.34;5133867;27;19950;-68
2022/04/12 06:42:48;;;;;;;;;;;;;;;18.68;34.33;98771.53;5133541;27;19959;-68
2022/04/12 06:45:15;;;;;;;;;;;;;;;18.57;34.92;98782.28;5134863;27;19958;-67
2022/04/12 06:47:43;;;;;;;;;;;;;;;18.44;35.39;98782.13;5134272;28;19983;-68
2022/04/12 06:50:11;;;;;;;;;;;;;;;18.19;35.34;98773.41;5133933;27;19950;-68
2022/04/12 06:52:38;;;;;;;;;;;;;;;18.08;35.32;98776.47;5134607;27;19974;-67
2022/04/12 06:55:06;;;;;;;;;;;;;;;17.78;35.75;98775.91;5134056;27;20237;-68
2022/04/12 06:57:35;;;;;;;;;;;;;;;17.19;36.95;98773.72;5134328;27;19947;-67
2022/04/12 07:00:04;;;;;;;;;;;;;;;17.15;37.15;98775.81;5134336;27;19958;-67
2022/04/12 07:02:31;;;;;;;;;;;;;;;16.37;39.15;98776.22;5134381;27;19948;-68
2022/04/12 07:04:59;;;;;;;;;;;;;;;16.50;37.95;98773.63;5133725;27;19950;-67
2022/04/12 07:07:26;;;;;;;;;;;;;;;16.07;39.39;98774.22;5134051;27;19944;-67
2022/04/12 07:09:56;;;;;;;;;;;;;;;16.05;39.71;98782.31;5133778;27;19955;-68
2022/04/12 07:12:24;;;;;;;;;;;;;;;15.92;40.36;98778.44;5132301;28;19973;-67
2022/04/12 07:14:51;;;;;;;;;;;;;;;15.96;39.71;98779.22;5133684;27;19954;-67
2022/04/12 07:17:20;;;;;;;;;;;;;;;15.84;41.31;98776.94;5133486;28;19946;-67
2022/04/12 07:19:48;;;;;;;;;;;;;;;15.93;40.85;98773.59;5133589;28;19953;-70
2022/04/12 07:22:15;;;;;;;;;;;;;;;15.87;41.96;98783.78;5133541;27;19960;-67
2022/04/12 07:24:42;;;;;;;;;;;;;;;15.99;42.65;98772.69;5119465;28;19955;-67
2022/04/12 07:27:10;;;;;;;;;;;;;;;16.13;43.29;98771.75;5119952;28;19960;-68
2022/04/12 07:29:38;;;;;;;;;;;;;;;16.13;42.42;98768.91;5118407;28;19954;-68
2022/04/12 07:32:05;;;;;;;;;;;;;;;16.21;41.19;98779.66;5119518;28;20239;-67
2022/04/12 07:34:33;;;;;;;;;;;;;;;16.17;41.98;98780.94;5119657;28;20384;-67
2022/04/12 07:37:00;;;;;;;;;;;;;;;16.11;42.17;98777.00;5119537;28;20220;-67
2022/04/12 07:39:27;;;;;;;;;;;;;;;16.21;41.07;98782.50;5119486;28;19948;-67
2022/04/12 07:41:55;;;;;;;;;;;;;;;16.34;40.65;98777.88;5119526;28;19953;-67
2022/04/12 07:44:22;;;;;;;;;;;;;;;16.51;40.39;98776.03;5119575;27;19952;-68
2022/04/12 07:46:49;;;;;;;;;;;;;;;16.37;44.62;98779.84;5119605;27;20207;-68
2022/04/12 07:49:17;;;;;;;;;;;;;;;16.48;41.34;98776.88;5119252;28;19951;-67
2022/04/12 07:51:44;;;;;;;;;;;;;;;16.66;40.58;98774.63;5119258;28;19943;-68
2022/04/12 07:54:11;;;;;;;;;;;;;;;16.27;41.07;98788.47;5119173;28;19953;-67
2022/04/12 07:56:39;;;;;;;;;;;;;;;16.50;40.39;98785.72;5119134;28;19959;-67
2022/04/12 07:59:09;;;;;;;;;;;;;;;16.37;41.69;98799.63;5119275;27;19962;-68
2022/04/12 08:01:37;;;;;;;;;;;;;;;16.33;38.68;98804.50;5119258;27;19961;-67
2022/04/12 08:04:04;;;;;;;;;;;;;;;16.27;38.80;98803.38;5119468;28;19945;-67
2022/04/12 08:06:32;;;;;;;;;;;;;;;16.23;40.25;98802.66;5118893;28;19946;-67
2022/04/12 08:08:59;;;;;;;;;;;;;;;16.25;39.47;98797.38;5119279;27;19948;-67
2022/04/12 08:11:27;;;;;;;;;;;;;;;16.22;40.06;98800.22;5118499;28;19983;-68
2022/04/12 08:13:54;;;;;;;;;;;;;;;16.05;38.26;98804.88;5119096;27;19972;-67
2022/04/12 08:16:21;;;;;;;;;;;;;;;16.04;39.21;98797.63;5118740;27;19968;-67
2022/04/12 08:18:49;;;;;;;;;;;;;;;16.15;42.09;98794.69;5117697;28;19949;-68
2022/04/12 08:21:30;;;;;;;;;;;;;;;16.05;41.00;98798.44;5118966;27;19953;-68
2022/04/12 08:23:58;;;;;;;;;;;;;;;16.13;39.51;98799.94;5118531;28;19959;-67
2022/04/12 08:26:25;;;;;;;;;;;;;;;16.10;38.06;98801.59;5118545;28;19950;-67
2022/04/12 08:28:53;;;;;;;;;;;;;;;15.96;37.58;98798.16;5117497;28;19959;-68
2022/04/12 08:31:20;;;;;;;;;;;;;;;15.96;40.46;98798.16;5118799;27;19951;-68
2022/04/12 08:33:47;;;;;;;;;;;;;;;15.93;40.50;98796.16;5118230;28;19985;-67
2022/04/12 08:36:16;;;;;;;;;;;;;;;16.13;39.08;98797.13;5117439;28;19949;-67
2022/04/12 08:38:44;;;;;;;;;;;;;;;16.25;39.26;98800.19;5118200;28;19948;-68
2022/04/12 08:41:13;;;;;;;;;;;;;;;16.36;39.75;98798.00;5118031;28;19952;-69
2022/04/12 08:43:41;;;;;;;;;;;;;;;16.25;40.02;98799.38;5119215;27;19952;-70
2022/04/12 08:46:08;;;;;;;;;;;;;;;16.09;40.29;98799.97;5118131;28;19952;-70
2022/04/12 08:48:37;;;;;;;;;;;;;;;16.04;41.10;98797.63;5118185;28;19945;-70
2022/04/12 08:51:05;;;;;;;;;;;;;;;16.08;42.83;98791.94;5118029;28;20240;-70
2022/04/12 08:53:32;;;;;;;;;;;;;;;16.07;41.45;98790.34;5118286;27;20362;-69
2022/04/12 08:55:59;;;;;;;;;;;;;;;16.35;40.46;98796.44;5118521;27;19947;-69
2022/04/12 08:58:27;;;;;;;;;;;;;;;16.28;40.84;98796.53;5118401;27;19952;-69
2022/04/12 09:00:55;;;;;;;;;;;;;;;16.37;38.84;98796.00;5118385;27;19954;-70
2022/04/12 09:03:22;;;;;;;;;;;;;;;16.55;40.25;98798.59;5118179;28;19980;-69
2022/04/12 09:05:49;;;;;;;;;;;;;;;16.40;44.48;98793.13;5117697;28;19958;-69
2022/04/12 09:08:23;;;;;;;;;;;;;;;16.47;45.00;98797.88;5117727;28;19964;-70
2022/04/12 09:11:05;;;;;;;;;;;;;;;16.57;43.53;98791.31;5116317;28;19956;-70
2022/04/12 09:13:32;;;;;;;;;;;;;;;15.91;44.08;98788.13;5117543;28;19968;-70
2022/04/12 09:16:00;;;;;;;;;;;;;;;15.78;44.86;98787.09;5117505;27;19956;-70
2022/04/12 09:18:43;;;;;;;;;;;;;;;15.93;48.22;98780.06;5117554;28;20629;-69
2022/04/12 09:21:17;;;;;;;;;;;;;;;15.98;48.18;98785.22;5117583;28;19942;-69
2022/04/12 09:23:46;;;;;;;;;;;;;;;15.68;44.50;98790.81;5117606;28;19944;-70
2022/04/12 09:26:21;;;;;;;;;;;;;;;15.61;47.13;98782.44;5117430;28;19951;-69
2022/04/12 09:28:48;;;;;;;;;;;;;;;15.71;47.11;98790.78;5117519;28;20248;-69
2022/04/12 09:31:20;;;;;;;;;;;;;;;15.83;41.21;98792.25;5117631;28;19953;-69
2022/04/12 09:33:48;;;;;;;;;;;;;;;15.63;44.19;98794.09;5117259;28;19975;-70
2022/04/12 09:36:15;;;;;;;;;;;;;;;15.60;43.11;98789.31;5117891;28;20322;-70
2022/04/12 09:38:43;;;;;;;;;;;;;;;15.44;44.38;98781.38;5117189;28;20271;-70
2022/04/12 09:41:10;;;;;;;;;;;;;;;15.42;45.54;98788.66;5117339;28;19961;-70
2022/04/12 09:43:49;;;;;;;;;;;;;;;15.46;45.35;98789.44;5117314;28;19955;-69
2022/04/12 09:46:17;;;;;;;;;;;;;;;15.53;45.36;98784.53;5116838;28;19952;-69
2022/04/12 09:48:47;;;;;;;;;;;;;;;15.76;43.16;98783.88;5117762;27;20248;-69
2022/04/12 09:51:15;;;;;;;;;;;;;;;15.74;44.96;98777.88;5117022;28;19955;-69
2022/04/12 09:53:45;;;;;;;;;;;;;;;15.77;48.15;98777.81;5116939;28;20162;-69
2022/04/12 09:56:16;;;;;;;;;;;;;;;15.89;48.42;98775.69;5117279;27;19947;-69
2022/04/12 09:58:45;;;;;;;;;;;;;;;15.55;45.86;98773.63;5117365;28;19947;-69
2022/04/12 10:01:13;;;;;;;;;;;;;;;15.55;44.46;98770.81;5117159;28;19958;-69
2022/04/12 10:03:43;;;;;;;;;;;;;;;15.66;44.61;98779.16;5116843;28;19946;-69
2022/04/12 10:06:11;;;;;;;;;;;;;;;15.64;45.70;98767.50;5116677;27;19949;-69
2022/04/12 10:08:39;;;;;;;;;;;;;;;15.62;43.75;98761.50;5116827;28;19965;-69
2022/04/12 10:11:08;;;;;;;;;;;;;;;15.31;45.82;98754.19;5116762;28;19998;-69
2022/04/12 10:13:36;;;;;;;;;;;;;;;15.41;45.40;98753.22;5117345;28;19976;-70
2022/04/12 10:16:03;;;;;;;;;;;;;;;15.62;44.03;98753.03;5116756;28;19960;-69
2022/04/12 10:18:32;;;;;;;;;;;;;;;15.67;46.33;98752.59;5117176;28;19947;-69
2022/04/12 10:21:00;;;;;;;;;;;;;;;15.49;42.21;98754.78;5117044;28;19954;-70
2022/04/12 10:23:29;;;;;;;;;;;;;;;15.50;44.69;98762.81;5116667;28;19960;-70
2022/04/12 10:25:57;;;;;;;;;;;;;;;15.79;45.39;98754.84;5116139;28;19963;-69
2022/04/12 10:28:26;;;;;;;;;;;;;;;15.67;42.73;98749.75;5116696;28;19958;-69
2022/04/12 10:31:22;;;;;;;;;;;;;;;15.59;43.24;98749.03;5116966;28;19956;-70
2022/04/12 10:34:04;;;;;;;;;;;;;;;15.84;44.63;98750.75;5111156;28;20557;-69
2022/04/12 10:36:49;;;;;;;;;;;;;;;15.75;44.26;98737.97;5116822;28;20232;-69
2022/04/12 10:39:29;;;;;;;;;;;;;;;15.62;49.38;98741.78;5116719;28;19952;-70
2022/04/12 10:41:58;;;;;;;;;;;;;;;15.43;44.39;98734.69;5116118;28;19953;-70
2022/04/12 10:44:25;;;;;;;;;;;;;;;15.46;45.89;98731.06;5116512;28;19963;-69
2022/04/12 10:46:52;;;;;;;;;;;;;;;15.60;48.32;98733.72;5116828;28;20401;-69
2022/04/12 10:49:20;;;;;;;;;;;;;;;15.59;46.32;98725.69;5116457;28;19958;-70
2022/04/12 10:51:59;;;;;;;;;;;;;;;15.51;48.10;98724.16;5116167;28;19964;-70
2022/04/12 10:54:29;;;;;;;;;;;;;;;15.74;50.17;98713.03;5116473;28;19967;-69
2022/04/12 10:57:15;;;;;;;;;;;;;;;15.74;45.80;98721.47;5116847;28;19958;-69
2022/04/12 10:59:46;;;;;;;;;;;;;;;15.75;45.65;98714.59;5119988;28;19955;-69
2022/04/12 11:02:14;;;;;;;;;;;;;;;15.85;49.60;98707.22;5120146;28;19958;-69
2022/04/12 11:04:41;;;;;;;;;;;;;;;15.76;45.22;98711.38;5120502;27;20333;-69
2022/04/12 11:07:09;;;;;;;;;;;;;;;15.67;45.94;98711.06;5120127;28;19986;-69
2022/04/12 11:09:36;;;;;;;;;;;;;;;15.79;45.82;98706.91;5120263;28;19959;-69
2022/04/12 11:12:04;;;;;;;;;;;;;;;15.76;45.36;98707.75;5120144;28;19981;-69
2022/04/12 11:14:33;;;;;;;;;;;;;;;15.83;47.53;98696.38;5120353;28;19969;-70
2022/04/12 11:17:01;;;;;;;;;;;;;;;15.84;47.66;98698.00;5120088;27;19951;-70
2022/04/12 11:19:39;;;;;;;;;;;;;;;15.80;51.12;98687.97;5120016;28;19946;-69
2022/04/12 11:22:09;;;;;;;;;;;;;;;15.70;44.37;98696.13;5119879;28;19951;-69
2022/04/12 11:24:37;;;;;;;;;;;;;;;15.74;44.72;98687.66;5119846;28;20277;-70
2022/04/12 11:27:06;;;;;;;;;;;;;;;15.80;43.65;98685.94;5120217;28;19949;-70
2022/04/12 11:29:33;;;;;;;;;;;;;;;15.85;42.72;98690.31;5119514;28;19952;-69
2022/04/12 11:32:01;;;;;;;;;;;;;;;15.84;45.50;98683.88;5119935;27;19948;-69
2022/04/12 11:34:29;;;;;;;;;;;;;;;16.00;45.07;98684.06;5118625;28;20269;-69
2022/04/12 11:36:57;;;;;;;;;;;;;;;16.00;45.36;98678.41;5119661;27;19955;-69
2022/04/12 11:39:25;;;;;;;;;;;;;;;15.88;45.04;98681.00;5119858;28;19959;-69
2022/04/12 11:42:03;;;;;;;;;;;;;;;15.79;45.41;98681.53;5119354;28;19957;-69
2022/04/12 11:44:31;;;;;;;;;;;;;;;15.89;46.44;98679.78;5119734;27;20350;-69
2022/04/12 11:47:02;;;;;;;;;;;;;;;15.83;47.06;98671.00;5119406;28;19961;-69
2022/04/12 11:49:37;;;;;;;;;;;;;;;15.97;48.12;98676.44;5119414;28;19950;-70
2022/04/12 11:52:11;;;;;;;;;;;;;;;16.14;44.49;98671.78;5119304;27;19952;-69
2022/04/12 11:54:45;;;;;;;;;;;;;;;16.20;47.39;98670.06;5119426;28;20260;-69
2022/04/12 11:57:13;;;;;;;;;;;;;;;16.16;43.89;98669.31;5119236;28;19954;-69
2022/04/12 11:59:59;;;;;;;;;;;;;;;16.14;46.56;98666.91;5119248;28;19957;-69
2022/04/12 12:02:33;;;;;;;;;;;;;;;16.27;47.17;98667.13;5118757;28;19959;-69
2022/04/12 12:05:02;;;;;;;;;;;;;;;16.15;42.25;98674.16;5118966;28;19946;-70
2022/04/12 12:07:30;;;;;;;;;;;;;;;16.09;47.39;98664.56;5118971;28;19949;-70
2022/04/12 12:10:01;;;;;;;;;;;;;;;16.20;45.74;98664.41;5118832;28;19956;-69
2022/04/12 12:12:32;;;;;;;;;;;;;;;16.39;50.49;98664.50;5118863;28;19976;-69
2022/04/12 12:15:11;;;;;;;;;;;;;;;16.48;43.37;98663.16;5119118;27;19966;-69
2022/04/12 12:17:39;;;;;;;;;;;;;;;16.59;44.38;98661.78;5119255;28;19956;-69
2022/04/12 12:20:07;;;;;;;;;;;;;;;16.48;46.78;98651.88;5118929;28;19949;-69
2022/04/12 12:22:36;;;;;;;;;;;;;;;16.36;44.62;98653.25;5119046;27;19947;-69
2022/04/12 12:25:04;;;;;;;;;;;;;;;16.55;47.58;98651.78;5118624;28;20261;-69
2022/04/12 12:27:38;;;;;;;;;;;;;;;16.59;48.79;98644.03;5118629;28;19959;-69
2022/04/12 12:30:05;;;;;;;;;;;;;;;16.32;46.32;98642.03;5118836;28;19947;-69
2022/04/12 12:32:34;;;;;;;;;;;;;;;16.26;48.26;98652.22;5119052;27;19958;-69
2022/04/12 12:35:04;;;;;;;;;;;;;;;16.29;47.42;98642.91;5118674;27;19974;-69
2022/04/12 12:37:32;;;;;;;;;;;;;;;16.33;46.79;98643.63;5118705;27;19949;-69
2022/04/12 12:39:59;;;;;;;;;;;;;;;16.11;43.16;98645.22;5119211;27;19953;-69
2022/04/12 12:42:39;;;;;;;;;;;;;;;16.26;48.14;98645.78;5118352;27;20372;-69
2022/04/12 12:45:10;;;;;;;;;;;;;;;16.30;50.42;98647.31;5118291;28;19948;-70
2022/04/12 12:47:39;;;;;;;;;;;;;;;16.40;47.29;98649.19;5118303;28;19959;-70
2022/04/12 12:50:11;;;;;;;;;;;;;;;16.42;47.47;98649.53;5118493;28;20434;-69
2022/04/12 12:52:39;;;;;;;;;;;;;;;16.46;41.76;98645.88;5117546;28;19953;-69
2022/04/12 12:55:18;;;;;;;;;;;;;;;16.43;41.80;98642.66;5118236;28;19981;-69
2022/04/12 12:57:45;;;;;;;;;;;;;;;16.42;45.69;98645.91;5117873;28;19961;-70
2022/04/12 13:00:13;;;;;;;;;;;;;;;16.43;47.14;98636.22;5118269;28;19965;-69
2022/04/12 13:02:41;;;;;;;;;;;;;;;16.56;48.56;98642.06;5117931;28;20329;-69
2022/04/12 13:05:09;;;;;;;;;;;;;;;16.65;48.86;98642.34;5117960;27;20259;-69
2022/04/12 13:07:38;;;;;;;;;;;;;;;16.56;48.02;98633.59;5117860;28;19958;-70
2022/04/12 13:10:10;;;;;;;;;;;;;;;16.71;46.96;98634.97;5117782;28;19957;-69
2022/04/12 13:12:38;;;;;;;;;;;;;;;16.75;54.53;98632.88;5117776;28;20360;-70
2022/04/12 13:15:06;;;;;;;;;;;;;;;16.84;47.69;98630.28;5117115;28;19966;-70
2022/04/12 13:17:33;;;;;;;;;;;;;;;16.76;48.48;98623.16;5117656;28;19953;-69
2022/04/12 13:20:02;;;;;;;;;;;;;;;16.82;51.64;98627.88;5117503;28;20240;-69
2022/04/12 13:22:29;;;;;;;;;;;;;;;16.89;50.04;98626.97;5117044;28;19953;-69
2022/04/12 13:24:56;;;;;;;;;;;;;;;16.83;48.02;98618.19;5117492;28;19951;-69
2022/04/12 13:27:24;;;;;;;;;;;;;;;16.84;46.96;98627.47;5117446;28;19953;-69
2022/04/12 13:29:52;;;;;;;;;;;;;;;16.73;44.39;98612.72;5117884;28;20230;-69
2022/04/12 13:32:19;;;;;;;;;;;;;;;16.70;44.89;98614.38;5117196;27;19964;-69
2022/04/12 13:34:46;;;;;;;;;;;;;;;16.55;45.94;98604.59;5117226;28;19980;-69
2022/04/12 13:37:14;;;;;;;;;;;;;;;16.76;42.56;98603.41;5117585;27;19957;-70
2022/04/12 13:39:41;;;;;;;;;;;;;;;16.60;42.85;98614.59;5117275;28;19942;-69
2022/04/12 13:42:08;;;;;;;;;;;;;;;16.66;46.85;98610.03;5117461;27;19950;-69
2022/04/12 13:44:36;;;;;;;;;;;;;;;16.53;44.39;98614.72;5117533;28;20236;-70
2022/04/12 13:47:04;;;;;;;;;;;;;;;16.49;43.64;98599.81;5117112;28;19946;-69
2022/04/12 13:49:32;;;;;;;;;;;;;;;16.24;42.46;98606.69;5117543;28;19946;-69
2022/04/12 13:52:00;;;;;;;;;;;;;;;16.32;45.20;98610.19;5117100;28;20249;-69
2022/04/12 13:54:28;;;;;;;;;;;;;;;16.45;43.04;98602.72;5117137;28;20387;-70
2022/04/12 13:56:56;;;;;;;;;;;;;;;16.39;44.53;98602.41;5117353;28;19948;-69
2022/04/12 13:59:23;;;;;;;;;;;;;;;16.42;44.20;98603.56;5116036;28;19956;-70
2022/04/12 14:01:51;;;;;;;;;;;;;;;16.54;43.29;98600.16;5117198;27;20231;-70
2022/04/12 14:04:19;;;;;;;;;;;;;;;16.54;42.01;98602.19;5117263;28;20336;-70
2022/04/12 14:06:46;;;;;;;;;;;;;;;16.37;44.46;98596.41;5117017;28;19957;-70
2022/04/12 14:09:14;;;;;;;;;;;;;;;16.54;46.79;98590.91;5116864;28;19954;-69
2022/04/12 14:11:42;;;;;;;;;;;;;;;16.75;43.98;98582.06;5116935;28;19973;-69
2022/04/12 14:14:14;;;;;;;;;;;;;;;16.71;44.91;98581.31;5116302;28;20029;-69
2022/04/12 14:16:42;;;;;;;;;;;;;;;16.75;47.07;98587.69;5117313;28;20242;-69
2022/04/12 14:19:11;;;;;;;;;;;;;;;16.66;42.83;98584.63;5116729;28;19959;-69
2022/04/12 14:21:38;;;;;;;;;;;;;;;16.70;43.83;98591.03;5116780;28;20324;-70
2022/04/12 14:24:06;;;;;;;;;;;;;;;16.64;41.30;98581.44;5116727;28;19950;-70
2022/04/12 14:26:34;;;;;;;;;;;;;;;16.64;43.15;98584.25;5116567;28;19973;-70
2022/04/12 14:29:04;;;;;;;;;;;;;;;16.42;43.00;98583.81;5116736;28;19957;-70
2022/04/12 14:31:31;;;;;;;;;;;;;;;16.41;42.23;98583.00;5117170;28;20366;-70
2022/04/12 14:33:59;;;;;;;;;;;;;;;16.31;42.59;98566.28;5119143;28;19957;-70
2022/04/12 14:36:26;;;;;;;;;;;;;;;16.43;41.71;98574.91;5120687;28;19976;-70
2022/04/12 14:38:54;;;;;;;;;;;;;;;16.44;41.04;98572.88;5121196;27;19958;-69
2022/04/12 14:41:21;;;;;;;;;;;;;;;16.42;41.96;98581.00;5120774;28;19952;-70
2022/04/12 14:43:48;;;;;;;;;;;;;;;16.25;41.90;98570.81;5120609;27;19953;-70
2022/04/12 14:46:16;;;;;;;;;;;;;;;16.37;46.13;98571.00;5120977;28;19951;-69
2022/04/12 14:48:43;;;;;;;;;;;;;;;16.34;41.16;98565.41;5120500;28;19952;-70
2022/04/12 14:51:10;;;;;;;;;;;;;;;16.43;41.37;98563.63;5120510;28;20324;-70
2022/04/12 14:53:37;;;;;;;;;;;;;;;16.43;42.99;98555.16;5120787;28;19954;-69
2022/04/12 14:56:06;;;;;;;;;;;;;;;16.51;41.13;98560.66;5120287;28;19969;-69
2022/04/12 14:58:36;;;;;;;;;;;;;;;16.45;41.64;98551.91;5119351;28;19957;-69
2022/04/12 15:01:04;;;;;;;;;;;;;;;16.44;42.49;98562.41;5120675;28;19957;-70
2022/04/12 15:03:32;;;;;;;;;;;;;;;16.50;42.87;98557.06;5120256;28;19953;-69
2022/04/12 15:05:59;;;;;;;;;;;;;;;16.48;40.70;98565.16;5120135;28;19949;-69
2022/04/12 15:08:27;;;;;;;;;;;;;;;16.42;39.49;98555.59;5120678;27;20235;-69
2022/04/12 15:10:54;;;;;;;;;;;;;;;16.43;37.92;98560.78;5119932;28;19953;-70
2022/04/12 15:13:21;;;;;;;;;;;;;;;16.51;39.81;98563.50;5120358;28;19957;-70
2022/04/12 15:15:48;;;;;;;;;;;;;;;16.49;37.71;98571.59;5119282;28;19968;-69
2022/04/12 15:18:16;;;;;;;;;;;;;;;16.49;38.97;98560.31;5120340;27;19983;-70
2022/04/12 15:20:43;;;;;;;;;;;;;;;16.43;39.24;98569.25;5119653;27;19954;-70
2022/04/12 15:23:11;;;;;;;;;;;;;;;16.40;38.57;98558.06;5120054;28;20262;-70
2022/04/12 15:25:38;;;;;;;;;;;;;;;16.51;36.71;98561.47;5120026;28;19958;-69
2022/04/12 15:28:06;;;;;;;;;;;;;;;16.40;37.35;98561.69;5119765;28;19953;-69
2022/04/12 15:30:33;;;;;;;;;;;;;;;16.49;39.16;98554.66;5119687;28;19952;-69
2022/04/12 15:33:01;;;;;;;;;;;;;;;16.44;39.79;98561.59;5120302;28;19953;-69
2022/04/12 15:35:28;;;;;;;;;;;;;;;16.38;40.67;98552.81;5119723;27;20356;-69
2022/04/12 15:38:02;;;;;;;;;;;;;;;16.37;41.96;98556.88;5119589;28;20365;-69
2022/04/12 15:40:30;;;;;;;;;;;;;;;16.35;42.60;98555.72;5119861;28;19957;-70
2022/04/12 15:42:58;;;;;;;;;;;;;;;16.36;43.59;98551.66;5119425;28;20238;-69
2022/04/12 15:45:26;;;;;;;;;;;;;;;16.35;44.01;98561.38;5119256;27;20329;-69
2022/04/12 15:47:53;;;;;;;;;;;;;;;16.36;43.73;98548.84;5119496;28;19959;-70
2022/04/12 15:50:21;;;;;;;;;;;;;;;16.32;44.09;98548.91;5118641;28;19987;-70
2022/04/12 15:52:48;;;;;;;;;;;;;;;16.32;42.75;98550.94;5119864;27;20246;-69
2022/04/12 15:55:17;;;;;;;;;;;;;;;16.24;43.89;98558.72;5119503;28;19972;-70
2022/04/12 15:57:44;;;;;;;;;;;;;;;16.24;44.80;98566.38;5119309;28;20231;-69
2022/04/12 16:00:13;;;;;;;;;;;;;;;16.21;45.19;98553.16;5119060;28;19946;-70
2022/04/12 16:02:42;;;;;;;;;;;;;;;16.29;45.96;98558.22;5118466;28;20256;-70
2022/04/12 16:05:09;;;;;;;;;;;;;;;16.33;48.40;98561.00;5119328;28;19950;-70
2022/04/12 16:07:37;;;;;;;;;;;;;;;16.30;46.05;98562.66;5119332;28;20262;-69
2022/04/12 16:10:23;;;;;;;;;;;;;;;16.15;46.48;98566.94;5118914;28;20246;-69
2022/04/12 16:12:50;;;;;;;;;;;;;;;16.20;47.85;98554.38;5118836;28;20274;-69
2022/04/12 16:15:18;;;;;;;;;;;;;;;16.17;49.55;98555.22;5118732;28;19960;-69
2022/04/12 16:17:45;;;;;;;;;;;;;;;16.17;48.37;98552.41;5119531;28;19952;-69
2022/04/12 16:20:16;;;;;;;;;;;;;;;16.16;49.61;98559.28;5118779;28;19948;-69
2022/04/12 16:22:44;;;;;;;;;;;;;;;16.17;48.66;98555.22;5119018;28;19968;-69
2022/04/12 16:25:14;;;;;;;;;;;;;;;16.19;49.41;98561.22;5118506;28;19947;-69
2022/04/12 16:27:42;;;;;;;;;;;;;;;16.12;49.55;98550.88;5117946;28;19946;-69
2022/04/12 16:30:11;;;;;;;;;;;;;;;16.16;48.15;98562.09;5118576;28;19950;-70
2022/04/12 16:32:38;;;;;;;;;;;;;;;16.06;48.89;98551.78;5118558;28;19960;-70
2022/04/12 16:35:06;;;;;;;;;;;;;;;16.06;49.40;98558.25;5118564;27;19979;-69
2022/04/12 16:37:33;;;;;;;;;;;;;;;15.94;50.98;98555.22;5118763;27;19977;-69
2022/04/12 16:40:00;;;;;;;;;;;;;;;15.94;49.84;98556.03;5119166;28;20236;-69
2022/04/12 16:42:28;;;;;;;;;;;;;;;15.89;49.47;98547.25;5118623;28;20480;-70
2022/04/12 16:44:55;;;;;;;;;;;;;;;15.87;50.43;98553.28;5118319;28;19947;-70
2022/04/12 16:47:22;;;;;;;;;;;;;;;15.83;50.70;98555.38;5118220;28;19953;-70
2022/04/12 16:49:50;;;;;;;;;;;;;;;15.79;52.25;98554.66;5118338;27;19956;-70
2022/04/12 16:52:19;;;;;;;;;;;;;;;15.73;51.74;98545.88;5116847;28;19948;-70
2022/04/12 16:54:47;;;;;;;;;;;;;;;15.73;51.02;98556.34;5118610;27;19952;-70
2022/04/12 16:57:15;;;;;;;;;;;;;;;15.70;52.22;98545.91;5117639;27;19974;-70
2022/04/12 16:59:42;;;;;;;;;;;;;;;15.71;52.27;98548.31;5118409;27;20204;-69
2022/04/12 17:02:09;;;;;;;;;;;;;;;15.66;52.15;98545.97;5117931;28;20326;-69
2022/04/12 17:04:36;;;;;;;;;;;;;;;15.64;53.24;98551.25;5117953;28;19948;-69
2022/04/12 17:07:04;;;;;;;;;;;;;;;15.62;53.36;98556.53;5118055;28;19951;-70
2022/04/12 17:09:32;;;;;;;;;;;;;;;15.51;53.85;98558.69;5117911;28;20359;-70
2022/04/12 17:12:00;;;;;;;;;;;;;;;15.44;54.76;98549.50;5117682;28;19971;-69
2022/04/12 17:14:28;;;;;;;;;;;;;;;15.48;54.65;98550.28;5118328;27;19961;-70
2022/04/12 17:16:55;;;;;;;;;;;;;;;15.42;54.59;98555.56;5117609;28;19967;-69
2022/04/12 17:19:22;;;;;;;;;;;;;;;15.41;54.83;98553.16;5117578;28;19944;-70
2022/04/12 17:21:50;;;;;;;;;;;;;;;15.44;53.26;98552.31;5117627;28;19949;-69
2022/04/12 17:24:17;;;;;;;;;;;;;;;15.33;54.04;98551.69;5118053;28;20371;-69
2022/04/12 17:26:44;;;;;;;;;;;;;;;15.26;54.63;98551.78;5117502;28;19947;-69
2022/04/12 17:29:12;;;;;;;;;;;;;;;15.21;54.62;98546.59;5117397;28;19951;-69
2022/04/12 17:31:42;;;;;;;;;;;;;;;15.13;55.03;98555.16;5117378;28;20372;-69
2022/04/12 17:34:10;;;;;;;;;;;;;;;15.07;55.87;98556.81;5117342;28;19954;-69
2022/04/12 17:36:37;;;;;;;;;;;;;;;15.01;56.33;98549.28;5117237;28;20311;-69